Time;durP1;ratioP1;P1;durP2;ratioP2;P2;SDS_P1;SDS_P2;PMS_P1;PMS_P2;Temp;Humidity;BMP_temperature;BMP_pressure;BME280_temperature;BME280_humidity;BME280_pressure;Samples;Min_cycle;Max_cycle;Signal;HPM_P1;HPM_P2
2022/11/03 00:01:39;;;;;;;4.20;2.50;;;6.00;97.30;;;;;;4934766;29;20969;-82
2022/11/03 00:04:06;;;;;;;2.07;1.70;;;6.00;97.30;;;;;;4940343;28;20512;-82
2022/11/03 00:06:32;;;;;;;2.70;1.50;;;6.00;97.30;;;;;;4958245;28;20925;-82
2022/11/03 00:08:59;;;;;;;1.60;1.50;;;6.00;97.30;;;;;;4958364;28;20472;-83
2022/11/03 00:11:25;;;;;;;1.90;1.80;;;6.00;97.30;;;;;;4975488;28;20791;-83
2022/11/03 00:13:51;;;;;;;1.83;1.73;;;5.90;97.30;;;;;;4958044;28;20437;-83
2022/11/03 00:16:16;;;;;;;6.23;2.37;;;5.90;97.30;;;;;;4958071;28;20189;-82
2022/11/03 00:18:42;;;;;;;1.83;1.73;;;5.80;97.30;;;;;;4975326;28;20185;-82
2022/11/03 00:21:10;;;;;;;2.03;1.93;;;5.80;97.30;;;;;;4957919;28;20183;-82
2022/11/03 00:23:38;;;;;;;1.37;1.27;;;5.80;97.30;;;;;;4975040;28;20230;-82
2022/11/03 00:26:05;;;;;;;1.67;1.57;;;5.80;97.30;;;;;;4957640;28;20553;-82
2022/11/03 00:28:32;;;;;;;1.50;1.40;;;5.80;97.30;;;;;;4958539;28;20425;-82
2022/11/03 00:31:05;;;;;;;1.10;1.00;;;5.80;97.30;;;;;;4957678;28;20418;-83
2022/11/03 00:33:31;;;;;;;1.43;1.33;;;5.80;97.30;;;;;;4975409;28;20449;-83
2022/11/03 00:35:58;;;;;;;11.20;1.60;;;5.80;97.30;;;;;;4957721;28;20454;-82
2022/11/03 00:38:24;;;;;;;1.70;1.60;;;6.00;97.30;;;;;;4957974;28;20418;-82
2022/11/03 00:40:57;;;;;;;6.10;3.90;;;6.20;97.30;;;;;;4957788;28;20426;-82
2022/11/03 00:43:23;;;;;;;7.10;1.97;;;6.40;97.30;;;;;;4957750;28;20253;-82
2022/11/03 00:45:49;;;;;;;1.63;1.53;;;6.40;97.30;;;;;;4956574;28;20512;-82
2022/11/03 00:48:30;;;;;;;1.83;1.73;;;6.50;97.30;;;;;;4957857;28;20445;-82
2022/11/03 00:51:09;;;;;;;2.80;2.23;;;6.60;97.30;;;;;;4957663;28;20418;-81
2022/11/03 00:53:39;;;;;;;1.30;1.20;;;6.80;97.30;;;;;;4957475;28;20436;-82
2022/11/03 00:56:07;;;;;;;3.23;2.40;;;6.90;97.30;;;;;;4957445;28;20925;-83
2022/11/03 00:58:33;;;;;;;1.33;1.23;;;6.80;97.30;;;;;;4957572;28;20426;-83
2022/11/03 01:01:04;;;;;;;3.57;2.50;;;6.70;97.30;;;;;;4989732;28;20440;-82
2022/11/03 01:03:31;;;;;;;2.23;2.07;;;6.60;97.30;;;;;;4957294;28;20202;-82
2022/11/03 01:08:41;;;;;;;3.50;1.80;;;6.40;97.30;;;;;;4975085;28;20445;-82
2022/11/03 01:13:54;;;;;;;2.93;2.17;;;6.30;97.30;;;;;;4974344;28;20813;-82
2022/11/03 01:16:20;;;;;;;1.20;1.10;;;6.20;97.30;;;;;;4957253;28;20429;-82
2022/11/03 01:18:46;;;;;;;1.83;1.73;;;6.10;97.30;;;;;;4974793;28;20525;-82
2022/11/03 01:21:11;;;;;;;1.60;1.50;;;6.10;97.30;;;;;;4957263;28;20432;-82
2022/11/03 01:23:37;;;;;;;1.63;1.53;;;6.00;97.30;;;;;;5015616;23;20237;-84
2022/11/03 01:26:04;;;;;;;1.67;1.57;;;6.00;97.30;;;;;;4992029;28;20205;-86
2022/11/03 01:28:32;;;;;;;2.20;1.70;;;6.00;97.30;;;;;;4991579;28;20182;-86
2022/11/03 01:31:02;;;;;;;2.00;1.90;;;6.00;97.30;;;;;;4992072;28;20413;-86
2022/11/03 01:33:28;;;;;;;1.10;1.00;;;6.10;97.30;;;;;;4991853;28;20441;-87
2022/11/03 01:35:53;;;;;;;1.60;1.50;;;6.20;97.30;;;;;;4992039;28;20417;-86
2022/11/03 01:38:19;;;;;;;1.73;1.63;;;6.10;97.30;;;;;;4991698;28;20204;-86
2022/11/03 01:40:44;;;;;;;1.50;1.40;;;6.10;97.30;;;;;;4991851;28;20177;-86
2022/11/03 01:43:15;;;;;;;15.53;2.23;;;6.10;97.30;;;;;;4993092;28;20571;-86
2022/11/03 01:45:41;;;;;;;3.47;3.17;;;6.10;97.30;;;;;;4991722;28;20692;-88
2022/11/03 01:48:08;;;;;;;1.93;1.83;;;6.10;97.30;;;;;;4991782;28;20415;-87
2022/11/03 01:50:34;;;;;;;3.33;2.20;;;6.10;97.30;;;;;;4991931;28;20417;-87
2022/11/03 01:53:00;;;;;;;6.03;2.27;;;6.10;97.30;;;;;;4992923;28;20487;-87
2022/11/03 01:55:31;;;;;;;2.27;2.10;;;6.20;97.30;;;;;;4992970;28;20264;-86
2022/11/03 01:58:02;;;;;;;1.20;1.10;;;6.10;97.30;;;;;;4991522;28;20428;-86
2022/11/03 02:00:28;;;;;;;1.30;1.10;;;6.10;97.30;;;;;;4991693;28;20842;-86
2022/11/03 02:02:53;;;;;;;1.40;1.30;;;6.20;97.30;;;;;;4991045;28;20488;-87
2022/11/03 02:05:21;;;;;;;1.40;1.30;;;6.20;97.30;;;;;;4991319;28;20209;-86
2022/11/03 02:07:57;;;;;;;1.67;1.57;;;6.10;97.30;;;;;;4992644;28;20177;-86
2022/11/03 02:10:23;;;;;;;2.70;1.93;;;6.10;97.30;;;;;;4991781;28;20409;-86
2022/11/03 02:12:49;;;;;;;2.77;1.93;;;6.10;97.30;;;;;;4991496;28;20447;-87
2022/11/03 02:15:17;;;;;;;1.70;1.60;;;6.20;97.30;;;;;;4992809;28;20185;-86
2022/11/03 02:17:46;;;;;;;1.53;1.43;;;6.20;97.30;;;;;;4990897;28;20292;-86
2022/11/03 02:20:27;;;;;;;1.90;1.47;;;6.20;97.30;;;;;;4992494;28;20413;-86
2022/11/03 02:23:12;;;;;;;1.50;1.40;;;6.10;97.30;;;;;;4991093;28;20449;-87
2022/11/03 02:25:52;;;;;;;2.47;1.67;;;6.10;97.30;;;;;;4992488;28;20468;-87
2022/11/03 02:28:20;;;;;;;1.37;1.27;;;6.10;97.30;;;;;;4991293;28;20435;-86
2022/11/03 02:31:13;;;;;;;1.50;1.40;;;6.00;97.30;;;;;;4991399;28;20417;-87
2022/11/03 02:34:00;;;;;;;1.20;1.10;;;6.00;97.30;;;;;;4991333;28;20468;-85
2022/11/03 02:36:32;;;;;;;2.03;1.43;;;5.90;97.30;;;;;;4991700;28;20456;-86
2022/11/03 02:39:13;;;;;;;1.40;1.30;;;5.90;97.30;;;;;;4991419;28;20817;-86
2022/11/03 02:41:40;;;;;;;1.33;1.23;;;5.80;97.30;;;;;;4992738;28;20528;-87
2022/11/03 02:44:13;;;;;;;3.13;2.57;;;5.80;97.30;;;;;;4991287;28;20685;-86
2022/11/03 02:46:42;;;;;;;1.60;1.50;;;5.70;97.30;;;;;;4991689;28;20452;-86
2022/11/03 02:49:07;;;;;;;1.30;1.20;;;5.70;97.30;;;;;;4991212;28;20413;-85
2022/11/03 02:51:33;;;;;;;1.70;1.60;;;5.70;97.30;;;;;;4991055;28;20424;-86
2022/11/03 02:54:07;;;;;;;3.47;2.40;;;5.60;97.30;;;;;;4990991;28;20268;-87
2022/11/03 02:56:40;;;;;;;2.03;1.90;;;5.60;97.30;;;;;;4991383;28;20405;-85
2022/11/03 02:59:10;;;;;;;3.13;2.03;;;5.60;97.30;;;;;;4991499;28;20963;-86
2022/11/03 03:01:45;;;;;;;1.50;1.40;;;5.70;97.30;;;;;;4991342;28;20409;-86
2022/11/03 03:04:30;;;;;;;3.73;2.30;;;5.70;97.30;;;;;;4991281;28;20432;-85
2022/11/03 03:07:13;;;;;;;1.40;1.30;;;5.70;97.30;;;;;;4991531;28;20409;-86
2022/11/03 03:09:45;;;;;;;1.33;1.23;;;5.80;97.30;;;;;;5001107;28;20402;-86
2022/11/03 03:12:15;;;;;;;1.87;1.77;;;5.80;97.30;;;;;;5018222;28;20401;-88
2022/11/03 03:14:44;;;;;;;2.83;1.43;;;5.90;97.30;;;;;;5018888;28;20476;-88
2022/11/03 03:17:17;;;;;;;1.53;1.43;;;5.90;97.30;;;;;;5001043;28;20405;-86
2022/11/03 03:20:13;;;;;;;1.57;1.47;;;5.90;97.30;;;;;;4995860;28;20468;-86
2022/11/03 03:22:59;;;;;;;3.93;1.93;;;6.00;97.30;;;;;;4994274;28;20421;-86
2022/11/03 03:25:45;;;;;;;1.90;1.80;;;6.00;97.30;;;;;;4994278;28;20843;-85
2022/11/03 03:28:21;;;;;;;18.63;5.00;;;6.00;97.30;;;;;;4995606;28;20405;-85
2022/11/03 03:30:47;;;;;;;4.93;2.00;;;6.10;97.30;;;;;;4994513;28;20421;-86
2022/11/03 03:33:15;;;;;;;1.93;1.83;;;6.10;97.30;;;;;;4994098;28;20441;-85
2022/11/03 03:35:45;;;;;;;16.00;2.37;;;6.10;97.30;;;;;;4994141;28;20413;-87
2022/11/03 03:38:25;;;;;;;1.30;1.20;;;6.10;97.30;;;;;;4993782;28;20413;-86
2022/11/03 03:40:54;;;;;;;2.87;2.67;;;6.30;97.30;;;;;;4994452;28;20497;-86
2022/11/03 03:43:22;;;;;;;1.93;1.83;;;6.40;97.30;;;;;;4993965;28;20439;-86
2022/11/03 03:45:50;;;;;;;1.37;1.30;;;6.50;97.30;;;;;;4994003;28;20967;-86
2022/11/03 03:48:16;;;;;;;2.20;2.00;;;6.40;97.30;;;;;;4994125;28;20831;-86
2022/11/03 03:50:45;;;;;;;1.50;1.40;;;6.50;97.30;;;;;;4994084;28;20433;-86
2022/11/03 03:53:14;;;;;;;1.47;1.43;;;6.70;97.30;;;;;;4993832;28;20532;-87
2022/11/03 03:55:42;;;;;;;1.10;1.00;;;6.70;97.30;;;;;;4993607;28;20436;-86
2022/11/03 03:58:12;;;;;;;1.50;1.40;;;6.50;97.30;;;;;;4993702;28;20416;-85
2022/11/03 04:00:39;;;;;;;5.57;2.93;;;6.40;97.30;;;;;;4993666;28;20445;-86
2022/11/03 04:03:05;;;;;;;1.97;1.87;;;6.20;97.30;;;;;;4994919;28;20441;-86
2022/11/03 04:05:31;;;;;;;2.40;2.03;;;6.20;97.30;;;;;;4993655;28;20453;-85
2022/11/03 04:07:57;;;;;;;23.03;3.70;;;6.30;97.30;;;;;;4993444;28;20409;-86
2022/11/03 04:10:23;;;;;;;1.17;1.07;;;6.40;97.30;;;;;;4982498;28;20492;-86
2022/11/03 04:23:50;;;;;;;1.20;1.10;;;6.60;97.30;;;;;;4974890;28;20467;-86
2022/11/03 04:26:18;;;;;;;1.27;1.17;;;6.50;97.30;;;;;;4980169;28;20992;-86
2022/11/03 04:28:44;;;;;;;2.73;1.77;;;6.40;97.30;;;;;;4981773;28;20410;-87
2022/11/03 04:31:15;;;;;;;3.40;2.60;;;6.20;97.30;;;;;;4987738;28;20487;-86
2022/11/03 04:33:41;;;;;;;1.33;1.30;;;6.20;97.30;;;;;;4992976;28;20436;-86
2022/11/03 04:36:19;;;;;;;1.67;1.57;;;6.20;97.30;;;;;;4993212;28;20421;-86
2022/11/03 04:38:44;;;;;;;1.60;1.50;;;6.20;97.30;;;;;;4983198;28;20976;-85
2022/11/03 04:41:20;;;;;;;2.67;1.63;;;6.20;97.30;;;;;;4983951;28;20512;-84
2022/11/03 04:43:46;;;;;;;1.10;1.00;;;6.20;97.30;;;;;;4980083;28;20615;-86
2022/11/03 04:46:22;;;;;;;1.47;1.37;;;6.10;97.30;;;;;;4973387;28;20519;-86
2022/11/03 04:48:48;;;;;;;1.20;1.10;;;6.10;97.30;;;;;;4973538;28;20913;-86
2022/11/03 04:51:16;;;;;;;3.40;1.53;;;6.10;97.30;;;;;;4974799;28;20410;-86
2022/11/03 04:53:51;;;;;;;1.30;1.20;;;6.00;97.30;;;;;;4973121;28;20441;-87
2022/11/03 04:56:20;;;;;;;1.47;1.10;;;6.00;97.30;;;;;;4973234;28;20505;-86
2022/11/03 04:58:47;;;;;;;2.40;2.20;;;5.90;97.30;;;;;;4973343;28;20445;-86
2022/11/03 05:01:14;;;;;;;2.80;2.60;;;5.90;97.30;;;;;;4973456;28;20437;-86
2022/11/03 05:03:42;;;;;;;1.30;1.20;;;5.90;97.30;;;;;;4980966;28;20480;-85
2022/11/03 05:06:16;;;;;;;1.60;1.50;;;5.80;97.30;;;;;;4980771;28;20511;-87
2022/11/03 05:08:45;;;;;;;2.40;1.43;;;5.70;97.30;;;;;;4981098;28;20794;-87
2022/11/03 05:11:20;;;;;;;1.67;1.57;;;5.70;97.30;;;;;;4994136;28;20428;-88
2022/11/03 05:13:47;;;;;;;1.87;1.80;;;5.60;97.30;;;;;;4992857;28;20437;-86
2022/11/03 05:16:13;;;;;;;4.40;1.93;;;5.60;97.30;;;;;;4993224;28;21012;-87
2022/11/03 05:18:42;;;;;;;8.03;1.53;;;5.40;97.30;;;;;;4994338;28;20417;-85
2022/11/03 05:21:18;;;;;;;3.83;1.50;;;5.30;97.30;;;;;;4992432;28;20413;-86
2022/11/03 05:23:50;;;;;;;1.10;1.00;;;5.20;97.30;;;;;;4992348;28;20534;-85
2022/11/03 05:26:31;;;;;;;2.43;2.23;;;5.10;97.30;;;;;;4994213;28;20460;-87
2022/11/03 05:29:01;;;;;;;1.10;1.00;;;5.00;97.30;;;;;;4994046;28;20401;-86
2022/11/03 05:31:29;;;;;;;1.30;1.20;;;4.90;97.30;;;;;;4992377;28;21093;-87
2022/11/03 05:34:04;;;;;;;2.67;1.60;;;4.90;97.30;;;;;;4992469;28;20849;-86
2022/11/03 05:36:31;;;;;;;1.30;1.20;;;4.90;97.30;;;;;;4992635;28;20425;-85
2022/11/03 05:39:27;;;;;;;4.23;1.57;;;4.90;97.30;;;;;;4992559;28;20420;-86
2022/11/03 05:41:54;;;;;;;1.33;1.27;;;4.90;97.30;;;;;;4992266;28;20448;-85
2022/11/03 05:44:35;;;;;;;1.43;1.33;;;5.00;97.30;;;;;;4992214;28;20618;-86
2022/11/03 05:47:12;;;;;;;4.23;2.13;;;4.90;97.30;;;;;;4993677;28;20390;-86
2022/11/03 05:49:38;;;;;;;1.90;1.83;;;4.90;97.30;;;;;;4976021;28;20410;-85
2022/11/03 05:52:11;;;;;;;21.93;1.77;;;4.80;97.30;;;;;;4972767;28;20509;-87
2022/11/03 05:54:36;;;;;;;1.30;1.20;;;4.80;97.30;;;;;;4973023;28;20209;-87
2022/11/03 05:57:10;;;;;;;1.53;1.23;;;4.80;97.30;;;;;;4978088;28;20430;-86
2022/11/03 05:59:35;;;;;;;1.30;1.20;;;4.70;97.30;;;;;;4982610;28;20174;-87
2022/11/03 06:02:25;;;;;;;13.93;3.60;;;4.60;97.30;;;;;;4979760;28;20421;-87
2022/11/03 06:04:51;;;;;;;3.83;1.63;;;4.60;97.30;;;;;;4965440;28;20194;-86
2022/11/03 06:07:23;;;;;;;3.77;2.20;;;4.50;97.30;;;;;;4984143;28;20414;-87
2022/11/03 06:09:50;;;;;;;3.10;2.17;;;4.50;97.30;;;;;;4982435;28;20258;-85
2022/11/03 06:12:19;;;;;;;1.53;1.43;;;4.40;97.30;;;;;;4991458;28;20497;-88
2022/11/03 06:14:45;;;;;;;3.73;3.53;;;4.40;97.30;;;;;;4993179;28;20515;-88
2022/11/03 06:17:22;;;;;;;4.13;2.17;;;4.30;97.30;;;;;;5009747;28;20456;-88
2022/11/03 06:19:51;;;;;;;1.30;1.20;;;4.30;97.30;;;;;;5012930;28;20172;-87
2022/11/03 06:22:23;;;;;;;1.30;1.20;;;4.30;97.30;;;;;;5012209;28;20425;-87
2022/11/03 06:24:49;;;;;;;1.53;1.43;;;4.30;97.30;;;;;;4997919;28;20468;-86
2022/11/03 06:27:22;;;;;;;5.53;3.03;;;4.30;97.30;;;;;;4986192;28;20421;-86
2022/11/03 06:30:00;;;;;;;2.83;2.63;;;4.30;97.30;;;;;;4973552;28;20410;-87
2022/11/03 06:32:27;;;;;;;6.40;2.23;;;4.40;97.30;;;;;;4987794;28;20421;-87
2022/11/03 06:34:56;;;;;;;38.23;3.23;;;4.40;97.30;;;;;;4991676;28;20452;-87
2022/11/03 06:37:34;;;;;;;2.13;1.97;;;4.50;97.30;;;;;;4974362;28;20944;-84
2022/11/03 06:40:25;;;;;;;1.70;1.40;;;4.50;97.30;;;;;;4983708;28;20952;-87
2022/11/03 06:42:54;;;;;;;1.60;1.50;;;4.50;97.30;;;;;;5005276;28;20460;-87
2022/11/03 06:45:24;;;;;;;1.27;1.27;;;4.60;97.30;;;;;;4995020;28;20457;-87
2022/11/03 06:47:52;;;;;;;2.80;2.07;;;4.60;97.30;;;;;;4995413;28;20515;-87
2022/11/03 06:50:20;;;;;;;1.00;0.90;;;4.60;97.30;;;;;;4995223;28;20453;-87
2022/11/03 06:52:48;;;;;;;2.60;1.60;;;4.70;97.30;;;;;;4995364;28;20504;-87
2022/11/03 06:55:27;;;;;;;2.80;2.40;;;4.70;97.30;;;;;;4994940;28;20424;-87
2022/11/03 06:57:56;;;;;;;1.40;1.30;;;4.70;97.30;;;;;;4994534;28;20420;-86
2022/11/03 07:00:22;;;;;;;2.50;2.00;;;4.80;97.30;;;;;;4987084;28;20422;-86
2022/11/03 07:02:59;;;;;;;2.27;2.07;;;4.80;97.30;;;;;;4995578;28;20423;-86
2022/11/03 07:05:27;;;;;;;2.73;2.53;;;4.80;97.30;;;;;;4990552;28;20733;-85
2022/11/03 07:07:59;;;;;;;2.40;2.10;;;4.90;97.30;;;;;;5000747;28;20421;-89
2022/11/03 07:10:30;;;;;;;3.70;2.37;;;4.90;97.30;;;;;;5017634;28;20416;-88
2022/11/03 07:12:59;;;;;;;1.53;1.20;;;5.00;97.30;;;;;;5018143;28;20455;-89
2022/11/03 07:15:31;;;;;;;5.90;2.30;;;5.10;97.30;;;;;;4996855;28;20425;-87
2022/11/03 07:17:57;;;;;;;3.37;2.03;;;5.20;97.30;;;;;;4993761;28;21022;-87
2022/11/03 07:20:23;;;;;;;3.70;2.53;;;5.20;97.30;;;;;;4993915;28;20443;-87
2022/11/03 07:25:19;;;;;;;8.73;4.23;;;5.40;97.30;;;;;;5046568;23;20231;-81
2022/11/03 07:27:49;;;;;;;9.77;7.23;;;5.50;97.30;;;;;;5017388;28;20443;-82
2022/11/03 07:30:25;;;;;;;11.07;4.63;;;5.60;97.30;;;;;;5009197;28;20507;-82
2022/11/03 07:32:53;;;;;;;3.17;1.77;;;5.70;97.30;;;;;;5010128;28;20419;-81
2022/11/03 07:35:35;;;;;;;2.70;2.50;;;5.80;97.30;;;;;;5013021;28;20420;-80
2022/11/03 07:38:08;;;;;;;6.17;4.30;;;5.90;97.30;;;;;;4994480;28;20424;-81
2022/11/03 07:40:34;;;;;;;2.23;2.10;;;6.00;97.30;;;;;;5000103;28;20451;-82
2022/11/03 07:43:12;;;;;;;1.97;1.87;;;6.20;97.30;;;;;;5006353;28;20466;-82
2022/11/03 07:45:51;;;;;;;2.67;2.47;;;6.30;97.30;;;;;;4978188;28;20233;-82
2022/11/03 07:48:35;;;;;;;3.93;2.20;;;6.40;97.30;;;;;;4977691;28;20417;-82
2022/11/03 07:51:27;;;;;;;2.70;2.30;;;6.50;97.30;;;;;;4997638;28;20835;-82
2022/11/03 07:53:56;;;;;;;5.37;2.33;;;6.70;97.30;;;;;;5013839;28;20451;-81
2022/11/03 07:56:25;;;;;;;1.53;1.43;;;6.80;97.30;;;;;;4997003;28;20922;-81
2022/11/03 07:59:10;;;;;;;9.00;1.77;;;6.90;97.30;;;;;;4996674;28;20426;-81
2022/11/03 08:01:39;;;;;;;4.03;2.30;;;7.00;97.30;;;;;;4996998;28;20428;-82
2022/11/03 08:04:07;;;;;;;1.30;1.20;;;7.20;97.30;;;;;;4997487;28;20440;-82
2022/11/03 08:06:32;;;;;;;2.07;1.93;;;7.30;97.30;;;;;;4997422;28;20546;-82
2022/11/03 08:08:58;;;;;;;2.27;2.07;;;7.50;97.30;;;;;;4996795;28;20511;-82
2022/11/03 08:11:23;;;;;;;4.00;2.43;;;7.70;97.30;;;;;;5013893;28;20533;-82
2022/11/03 08:13:50;;;;;;;6.20;3.43;;;7.90;97.30;;;;;;4996201;28;20197;-81
2022/11/03 08:16:16;;;;;;;2.43;2.23;;;8.20;97.30;;;;;;4996418;28;20304;-82
2022/11/03 08:18:42;;;;;;;1.20;1.10;;;8.40;97.30;;;;;;5014108;28;20420;-83
2022/11/03 08:21:08;;;;;;;1.10;1.00;;;8.70;97.30;;;;;;4995688;28;20440;-82
2022/11/03 08:23:33;;;;;;;1.10;1.00;;;8.90;97.30;;;;;;4996308;28;20232;-82
2022/11/03 08:25:59;;;;;;;1.20;1.10;;;9.20;97.30;;;;;;4996057;28;20227;-82
2022/11/03 08:28:24;;;;;;;1.43;1.33;;;9.40;97.30;;;;;;4996219;28;20184;-82
2022/11/03 08:30:50;;;;;;;1.00;0.90;;;9.60;97.30;;;;;;5014052;28;20231;-82
2022/11/03 08:33:15;;;;;;;14.93;2.03;;;9.80;97.30;;;;;;4995895;28;20205;-82
2022/11/03 08:35:41;;;;;;;1.70;1.60;;;9.90;97.30;;;;;;4995878;28;20255;-82
2022/11/03 08:38:06;;;;;;;2.53;1.67;;;10.10;97.30;;;;;;4995485;28;20177;-82
2022/11/03 08:40:32;;;;;;;1.40;1.30;;;10.20;97.30;;;;;;5013140;28;20182;-82
2022/11/03 08:43:01;;;;;;;1.70;1.60;;;10.40;97.30;;;;;;4995873;28;20667;-82
2022/11/03 08:45:28;;;;;;;2.13;1.87;;;10.50;97.30;;;;;;4995668;28;20215;-82
2022/11/03 08:47:53;;;;;;;45.10;2.40;;;10.60;97.30;;;;;;4995873;28;20435;-82
2022/11/03 08:50:19;;;;;;;1.67;1.10;;;10.70;97.30;;;;;;4995823;28;20428;-82
2022/11/03 08:52:44;;;;;;;2.20;1.83;;;10.70;97.30;;;;;;4996269;28;20176;-81
2022/11/03 08:55:10;;;;;;;0.90;0.80;;;10.80;97.30;;;;;;4996210;28;20479;-82
2022/11/03 08:57:35;;;;;;;1.93;1.60;;;10.90;97.30;;;;;;4995171;28;20738;-82
2022/11/03 09:00:02;;;;;;;1.40;1.30;;;11.00;97.30;;;;;;4996148;28;20213;-81
2022/11/03 09:02:28;;;;;;;1.30;1.20;;;11.10;97.30;;;;;;4995571;28;20181;-82
2022/11/03 09:04:53;;;;;;;1.10;1.00;;;11.20;97.30;;;;;;4995696;28;20550;-81
2022/11/03 09:07:19;;;;;;;2.20;1.03;;;11.30;97.30;;;;;;4994855;28;20188;-81
2022/11/03 09:09:44;;;;;;;2.03;1.93;;;11.50;97.30;;;;;;4995439;28;20555;-82
2022/11/03 09:12:10;;;;;;;1.23;1.20;;;11.50;97.30;;;;;;4994824;28;20279;-82
2022/11/03 09:14:35;;;;;;;1.90;1.80;;;11.60;97.30;;;;;;5012438;28;20254;-82
2022/11/03 09:17:01;;;;;;;6.50;2.00;;;11.60;97.30;;;;;;4995218;28;20190;-82
2022/11/03 09:19:26;;;;;;;2.60;2.00;;;11.70;97.30;;;;;;4995016;28;20197;-82
2022/11/03 09:21:52;;;;;;;1.10;1.00;;;11.70;97.30;;;;;;4995231;28;20189;-82
2022/11/03 09:24:17;;;;;;;1.20;1.10;;;11.80;97.30;;;;;;4995051;28;20275;-82
2022/11/03 09:26:43;;;;;;;7.03;2.00;;;11.80;97.30;;;;;;4995086;28;20213;-82
2022/11/03 09:29:08;;;;;;;13.27;1.27;;;11.80;97.30;;;;;;4995039;28;20173;-82
2022/11/03 09:31:34;;;;;;;1.10;1.00;;;11.90;97.30;;;;;;4994858;28;20180;-82
2022/11/03 09:33:59;;;;;;;1.20;1.10;;;11.90;96.60;;;;;;4995022;28;20664;-81
2022/11/03 09:36:25;;;;;;;1.60;1.23;;;12.00;97.00;;;;;;4995512;28;20187;-82
2022/11/03 09:38:50;;;;;;;1.50;1.40;;;12.00;97.30;;;;;;4994882;28;20180;-82
2022/11/03 09:41:19;;;;;;;3.67;1.63;;;12.10;97.30;;;;;;4994994;28;20176;-81
2022/11/03 09:43:45;;;;;;;2.03;1.90;;;12.10;97.30;;;;;;4994816;28;20216;-81
2022/11/03 09:46:11;;;;;;;1.00;0.90;;;12.10;97.30;;;;;;4994976;28;20479;-82
2022/11/03 09:48:37;;;;;;;1.40;1.30;;;12.10;96.80;;;;;;4995043;28;20916;-82
2022/11/03 09:51:03;;;;;;;7.23;1.30;;;12.10;96.50;;;;;;4994720;28;20790;-82
2022/11/03 09:53:29;;;;;;;1.70;1.60;;;12.10;96.50;;;;;;4994599;28;20436;-81
2022/11/03 09:55:55;;;;;;;1.80;1.70;;;12.10;96.70;;;;;;5012391;28;20256;-82
2022/11/03 09:58:21;;;;;;;8.73;2.00;;;12.10;96.60;;;;;;5012590;28;20829;-81
2022/11/03 10:00:46;;;;;;;1.27;1.17;;;12.10;95.90;;;;;;4994924;28;20177;-82
2022/11/03 10:03:15;;;;;;;1.20;1.10;;;12.10;95.90;;;;;;5012249;28;20695;-82
2022/11/03 10:05:43;;;;;;;1.20;1.10;;;12.20;95.80;;;;;;4994983;28;20200;-81
2022/11/03 10:08:21;;;;;;;9.13;1.60;;;12.20;96.00;;;;;;5012239;28;20458;-81
2022/11/03 10:10:47;;;;;;;1.30;1.20;;;12.30;95.00;;;;;;4994720;28;20470;-82
2022/11/03 10:13:21;;;;;;;0.90;0.80;;;12.30;95.10;;;;;;4994405;28;20428;-81
2022/11/03 10:15:47;;;;;;;1.03;0.93;;;12.40;95.50;;;;;;5012270;28;20423;-82
2022/11/03 10:18:13;;;;;;;4.87;1.97;;;12.40;94.90;;;;;;4997486;28;20432;-82
2022/11/03 10:20:39;;;;;;;1.13;1.03;;;12.40;94.10;;;;;;4998859;28;20211;-81
2022/11/03 10:23:07;;;;;;;3.10;2.53;;;12.40;94.10;;;;;;4998915;28;20463;-81
2022/11/03 10:25:35;;;;;;;2.50;1.60;;;12.50;94.40;;;;;;4998432;28;20251;-82
2022/11/03 10:28:21;;;;;;;2.10;1.40;;;12.50;94.70;;;;;;4998820;28;20420;-82
2022/11/03 10:30:48;;;;;;;1.10;1.00;;;12.60;95.00;;;;;;5016303;28;20415;-82
2022/11/03 10:33:30;;;;;;;2.43;2.23;;;12.60;95.30;;;;;;4998107;28;20435;-81
2022/11/03 10:36:19;;;;;;;1.57;1.47;;;12.70;95.80;;;;;;5015931;28;21088;-82
2022/11/03 10:38:46;;;;;;;1.00;0.90;;;12.80;95.90;;;;;;4992843;28;20499;-82
2022/11/03 10:41:14;;;;;;;1.13;1.10;;;12.80;95.80;;;;;;4998294;28;20466;-82
2022/11/03 10:43:42;;;;;;;1.73;0.90;;;12.80;95.00;;;;;;5016247;28;20499;-81
2022/11/03 10:46:20;;;;;;;1.37;1.27;;;12.90;95.20;;;;;;4997896;28;20458;-81
2022/11/03 10:49:13;;;;;;;1.10;1.00;;;13.00;94.90;;;;;;4998239;28;20411;-82
2022/11/03 10:51:41;;;;;;;1.10;1.00;;;13.00;94.30;;;;;;4998417;28;20555;-81
2022/11/03 10:54:13;;;;;;;1.73;1.20;;;13.00;93.40;;;;;;5015135;28;20436;-82
2022/11/03 10:56:40;;;;;;;2.50;1.23;;;13.00;92.80;;;;;;4998412;28;20424;-82
2022/11/03 10:59:10;;;;;;;1.27;1.17;;;13.10;92.70;;;;;;4998042;28;20794;-82
2022/11/03 11:01:36;;;;;;;0.90;0.80;;;13.10;93.30;;;;;;4998041;28;20420;-82
2022/11/03 11:04:03;;;;;;;1.00;0.90;;;13.20;93.90;;;;;;4997550;28;20455;-82
2022/11/03 11:06:30;;;;;;;2.10;1.57;;;13.30;92.40;;;;;;4997614;28;20853;-82
2022/11/03 11:09:04;;;;;;;1.27;1.17;;;13.40;92.90;;;;;;4997506;28;20411;-82
2022/11/03 11:11:30;;;;;;;4.83;2.30;;;13.50;91.80;;;;;;5015188;28;20505;-82
2022/11/03 11:14:24;;;;;;;0.97;0.87;;;13.50;91.60;;;;;;4997402;28;20518;-81
2022/11/03 11:16:55;;;;;;;1.20;1.10;;;13.70;91.70;;;;;;4997608;28;20431;-82
2022/11/03 11:19:22;;;;;;;6.37;1.90;;;13.80;91.80;;;;;;5015587;28;20454;-81
2022/11/03 11:21:49;;;;;;;1.10;1.00;;;14.00;91.40;;;;;;5015448;28;20475;-81
2022/11/03 11:24:43;;;;;;;1.33;1.30;;;14.10;91.50;;;;;;4997624;28;20726;-81
2022/11/03 11:27:31;;;;;;;1.50;1.40;;;14.30;92.10;;;;;;4997897;28;20886;-82
2022/11/03 11:30:03;;;;;;;7.27;1.97;;;14.40;89.50;;;;;;4996896;28;20409;-82
2022/11/03 11:32:38;;;;;;;4.20;1.10;;;14.40;88.90;;;;;;4997471;28;20481;-82
2022/11/03 11:35:09;;;;;;;3.13;1.00;;;14.40;90.20;;;;;;4996735;28;20455;-81
2022/11/03 11:37:36;;;;;;;8.47;2.33;;;14.60;89.70;;;;;;4997399;28;20416;-81
2022/11/03 11:40:12;;;;;;;1.20;1.10;;;14.80;89.20;;;;;;4996955;28;20458;-82
2022/11/03 11:42:59;;;;;;;1.13;0.90;;;14.90;88.60;;;;;;5014939;28;20457;-81
2022/11/03 11:46:04;;;;;;;3.90;1.83;;;15.10;89.20;;;;;;4997177;28;20451;-81
2022/11/03 11:48:30;;;;;;;1.30;1.30;;;15.20;88.70;;;;;;4981819;28;20937;-81
2022/11/03 11:50:59;;;;;;;2.20;1.63;;;15.30;88.80;;;;;;5014943;28;20415;-82
2022/11/03 11:53:26;;;;;;;1.17;1.13;;;15.50;88.40;;;;;;4997339;28;20201;-82
2022/11/03 11:55:55;;;;;;;1.17;0.93;;;15.50;88.90;;;;;;4997225;28;20427;-82
2022/11/03 11:58:47;;;;;;;6.33;1.27;;;15.70;88.10;;;;;;4996682;28;20886;-82
2022/11/03 12:01:32;;;;;;;2.53;1.30;;;15.90;88.20;;;;;;4996767;28;20440;-81
2022/11/03 12:04:27;;;;;;;2.40;2.03;;;16.10;87.70;;;;;;4996672;28;20450;-82
2022/11/03 12:06:54;;;;;;;6.23;1.47;;;16.30;86.70;;;;;;4996707;28;20421;-82
2022/11/03 12:09:26;;;;;;;1.13;1.03;;;16.50;86.00;;;;;;5013855;28;20412;-82
2022/11/03 12:11:54;;;;;;;1.57;1.47;;;16.50;86.50;;;;;;5013939;28;20424;-81
2022/11/03 12:14:30;;;;;;;1.20;1.10;;;16.70;86.10;;;;;;4996318;28;20428;-82
2022/11/03 12:17:18;;;;;;;1.17;1.07;;;16.70;85.60;;;;;;4996254;28;20860;-82
2022/11/03 12:19:45;;;;;;;4.47;2.50;;;16.70;86.10;;;;;;4995599;28;20431;-82
2022/11/03 12:22:36;;;;;;;1.30;1.20;;;16.80;86.50;;;;;;4994693;28;20981;-82
2022/11/03 12:25:07;;;;;;;4.10;1.30;;;16.70;86.60;;;;;;5005482;28;20498;-81
2022/11/03 12:27:32;;;;;;;3.30;1.60;;;16.60;86.40;;;;;;4996939;28;20440;-81
2022/11/03 12:30:07;;;;;;;18.33;3.90;;;16.50;86.30;;;;;;4996685;28;20419;-82
2022/11/03 12:32:33;;;;;;;1.30;1.20;;;16.60;86.30;;;;;;5012181;28;20176;-81
2022/11/03 12:34:59;;;;;;;0.90;0.80;;;16.80;86.80;;;;;;5034240;28;20505;-82
2022/11/03 12:37:24;;;;;;;2.27;1.77;;;17.00;86.10;;;;;;5000750;28;20786;-81
2022/11/03 12:39:50;;;;;;;3.47;2.30;;;17.20;86.20;;;;;;5033762;28;20180;-82
2022/11/03 12:42:15;;;;;;;1.80;1.27;;;17.30;85.50;;;;;;5013044;28;20193;-82
2022/11/03 12:44:41;;;;;;;2.00;1.87;;;17.30;84.50;;;;;;5006669;28;20200;-81
2022/11/03 12:47:07;;;;;;;1.10;1.00;;;17.30;85.10;;;;;;5006132;28;20173;-81
2022/11/03 12:49:33;;;;;;;1.10;1.00;;;17.40;85.30;;;;;;5007252;28;20647;-82
2022/11/03 12:52:06;;;;;;;1.20;1.13;;;17.40;85.30;;;;;;5011268;28;20419;-82
2022/11/03 12:54:33;;;;;;;3.37;1.77;;;17.40;85.20;;;;;;4979567;28;20209;-81
2022/11/03 12:56:58;;;;;;;1.00;0.90;;;17.50;85.40;;;;;;4990472;28;20495;-82
2022/11/03 12:59:24;;;;;;;6.90;2.60;;;17.50;85.30;;;;;;5005201;28;20839;-82
2022/11/03 13:01:49;;;;;;;3.70;1.73;;;17.50;85.00;;;;;;5020120;28;20215;-81
2022/11/03 13:04:15;;;;;;;1.30;1.27;;;17.40;84.80;;;;;;5000240;28;20205;-81
2022/11/03 13:06:41;;;;;;;1.20;1.10;;;17.10;85.20;;;;;;5025184;28;20205;-79
2022/11/03 13:09:06;;;;;;;1.20;1.10;;;16.80;85.50;;;;;;5004052;28;20181;-81
2022/11/03 13:14:16;;;;;;;4.60;2.30;;;16.30;87.00;;;;;;4996393;28;20259;-81
2022/11/03 13:16:41;;;;;;;1.10;1.00;;;16.10;87.50;;;;;;5013050;28;20841;-80
2022/11/03 13:19:09;;;;;;;0.90;0.80;;;16.00;88.10;;;;;;5003936;28;20234;-81
2022/11/03 13:21:35;;;;;;;1.80;1.60;;;15.90;88.50;;;;;;5014568;28;20644;-82
2022/11/03 13:24:01;;;;;;;1.83;1.73;;;15.90;89.10;;;;;;4994239;23;20489;-81
2022/11/03 13:26:26;;;;;;;4.73;1.63;;;15.80;89.50;;;;;;5007519;28;20464;-82
2022/11/03 13:28:52;;;;;;;3.80;1.63;;;15.80;89.40;;;;;;4986568;28;20204;-80
2022/11/03 13:31:17;;;;;;;1.27;1.20;;;15.80;89.70;;;;;;4970672;28;20173;-81